Time;durP1;ratioP1;P1;durP2;ratioP2;P2;SDS_P1;SDS_P2;PMS_P1;PMS_P2;Temp;Humidity;BMP_temperature;BMP_pressure;BME280_temperature;BME280_humidity;BME280_pressure;Samples;Min_cycle;Max_cycle;Signal;HPM_P1;HPM_P2
2021/06/20 00:01:47;;;;;;;10.82;8.25;;;;;;;23.54;50.50;100249.54;1813022;79;21035;-70
2021/06/20 00:04:14;;;;;;;11.95;7.83;;;;;;;23.47;50.66;100242.12;1767745;81;21054;-70
2021/06/20 00:06:50;;;;;;;8.75;7.47;;;;;;;23.42;50.85;100244.78;1812940;79;21002;-70
2021/06/20 00:09:17;;;;;;;9.63;7.08;;;;;;;23.39;51.01;100244.20;1813298;79;20983;-70
2021/06/20 00:11:45;;;;;;;10.35;7.60;;;;;;;23.36;51.19;100246.05;1767583;81;21182;-70
2021/06/20 00:14:11;;;;;;;11.78;7.95;;;;;;;23.34;51.34;100248.22;1813078;79;21550;-70
2021/06/20 00:16:38;;;;;;;9.60;8.25;;;;;;;23.30;51.48;100241.64;1767989;81;21593;-70
2021/06/20 00:19:05;;;;;;;8.55;7.12;;;;;;;23.27;51.63;100242.16;1813504;79;20988;-70
2021/06/20 00:21:31;;;;;;;8.58;7.67;;;;;;;23.26;51.78;100237.79;1767887;81;21105;-70
2021/06/20 00:23:57;;;;;;;13.32;7.60;;;;;;;23.24;51.89;100236.41;1813242;79;21794;-70
2021/06/20 00:26:23;;;;;;;11.25;8.15;;;;;;;23.21;52.05;100233.67;1819948;78;20980;-70
2021/06/20 00:28:49;;;;;;;12.50;8.18;;;;;;;23.19;52.18;100230.37;1768990;80;21065;-70
2021/06/20 00:31:15;;;;;;;12.28;8.30;;;;;;;23.16;52.33;100234.97;1823541;78;21054;-70
2021/06/20 00:33:41;;;;;;;8.80;7.97;;;;;;;23.15;52.47;100230.59;1769533;81;21014;-70
2021/06/20 00:36:09;;;;;;;10.25;7.58;;;;;;;23.14;52.59;100227.61;1769397;81;21127;-70
2021/06/20 00:38:35;;;;;;;12.53;7.28;;;;;;;23.14;52.72;100226.25;1769541;81;21447;-70
2021/06/20 00:41:02;;;;;;;12.63;8.80;;;;;;;23.10;52.82;100227.84;1769387;81;21609;-70
2021/06/20 00:43:28;;;;;;;13.88;7.72;;;;;;;23.07;52.95;100220.20;1769656;81;20995;-70
2021/06/20 00:45:54;;;;;;;10.80;7.75;;;;;;;23.02;53.08;100219.30;1769321;81;21034;-70
2021/06/20 00:48:20;;;;;;;12.53;8.80;;;;;;;22.97;53.21;100217.37;1769410;81;21327;-70
2021/06/20 00:50:46;;;;;;;10.38;7.62;;;;;;;22.93;53.34;100214.05;1769357;80;21009;-70
2021/06/20 00:53:13;;;;;;;11.38;8.50;;;;;;;22.86;53.47;100212.89;1769331;81;20974;-70
2021/06/20 00:55:39;;;;;;;11.22;8.23;;;;;;;22.82;53.60;100209.03;1769562;81;21053;-70
2021/06/20 00:58:07;;;;;;;11.93;7.90;;;;;;;22.78;53.75;100213.33;1769668;81;21006;-70
2021/06/20 01:00:35;;;;;;;9.48;7.95;;;;;;;22.75;53.90;100205.68;1823417;78;21523;-70
2021/06/20 01:03:04;;;;;;;11.40;8.50;;;;;;;22.73;54.06;100198.33;1769668;81;20990;-70
2021/06/20 01:05:30;;;;;;;13.18;8.00;;;;;;;22.71;54.23;100201.83;1822506;78;22214;-70
2021/06/20 01:07:56;;;;;;;10.70;7.90;;;;;;;22.70;54.37;100194.20;1769412;81;20990;-70
2021/06/20 01:10:24;;;;;;;14.47;7.95;;;;;;;22.68;54.48;100188.73;1769295;81;21085;-70
2021/06/20 01:12:50;;;;;;;10.48;8.23;;;;;;;22.64;54.61;100193.00;1769241;81;21094;-70
2021/06/20 01:15:17;;;;;;;10.28;7.33;;;;;;;22.60;54.75;100195.41;1769322;81;21053;-70
2021/06/20 01:17:44;;;;;;;10.20;8.60;;;;;;;22.56;54.86;100192.08;1769485;81;21519;-70
2021/06/20 01:20:13;;;;;;;8.88;7.65;;;;;;;22.51;55.00;100197.48;1769160;81;21022;-70
2021/06/20 01:22:40;;;;;;;15.72;8.80;;;;;;;22.46;55.17;100190.60;1769721;81;23247;-70
2021/06/20 01:25:10;;;;;;;8.75;7.80;;;;;;;22.41;55.32;100189.45;1822798;78;21707;-70
2021/06/20 01:27:39;;;;;;;10.55;8.43;;;;;;;22.37;55.44;100188.34;1769371;80;20998;-70
2021/06/20 01:30:08;;;;;;;11.43;8.73;;;;;;;22.35;55.58;100182.86;1769432;81;21486;-70
2021/06/20 01:32:34;;;;;;;15.95;8.53;;;;;;;22.32;55.74;100182.00;1769638;81;21054;-70
2021/06/20 01:35:00;;;;;;;10.00;8.70;;;;;;;22.27;55.86;100174.60;1769508;81;21049;-70
2021/06/20 01:37:26;;;;;;;10.72;8.58;;;;;;;22.24;55.97;100175.64;1768888;81;21161;-70
2021/06/20 01:39:52;;;;;;;8.60;7.70;;;;;;;22.21;56.16;100170.71;1769527;81;21046;-70
2021/06/20 01:42:18;;;;;;;10.88;7.67;;;;;;;22.18;56.27;100170.69;1823143;78;21460;-70
2021/06/20 01:44:53;;;;;;;12.88;8.50;;;;;;;22.19;56.45;100175.06;1769353;81;21574;-70
2021/06/20 01:47:22;;;;;;;8.98;8.08;;;;;;;22.18;56.58;100176.13;1769432;80;21348;-70
2021/06/20 01:49:48;;;;;;;12.10;8.23;;;;;;;22.17;56.71;100173.11;1769491;81;21514;-70
2021/06/20 01:52:20;;;;;;;9.88;7.80;;;;;;;22.15;56.84;100169.84;1769491;81;21046;-70
2021/06/20 01:54:52;;;;;;;9.40;8.50;;;;;;;22.16;56.98;100175.56;1823084;78;21046;-70
2021/06/20 01:57:27;;;;;;;8.75;7.40;;;;;;;22.13;57.07;100165.17;1769446;81;21066;-70
2021/06/20 01:59:55;;;;;;;8.95;7.83;;;;;;;22.09;57.17;100168.13;1822399;78;21003;-70
2021/06/20 02:02:22;;;;;;;9.63;7.87;;;;;;;22.06;57.27;100171.33;1769569;81;21066;-70
2021/06/20 02:04:49;;;;;;;11.78;8.65;;;;;;;22.04;57.39;100174.84;1769308;81;21526;-70
2021/06/20 02:07:16;;;;;;;11.97;8.93;;;;;;;21.99;57.49;100165.81;1823301;78;20975;-70
2021/06/20 02:09:42;;;;;;;9.98;7.95;;;;;;;21.95;57.60;100161.95;1769187;81;21475;-70
2021/06/20 02:12:09;;;;;;;9.43;7.50;;;;;;;21.89;57.72;100159.11;1769389;81;21006;-70
2021/06/20 02:14:36;;;;;;;8.70;7.72;;;;;;;21.86;57.83;100161.50;1769440;81;21143;-70
2021/06/20 02:17:16;;;;;;;13.25;7.50;;;;;;;21.83;58.02;100159.29;1769462;81;21531;-70
2021/06/20 02:19:42;;;;;;;16.17;8.18;;;;;;;21.79;58.11;100153.53;1769529;81;21631;-70
2021/06/20 02:22:08;;;;;;;10.70;7.92;;;;;;;21.78;58.25;100159.20;1739234;81;21503;-70
2021/06/20 02:24:34;;;;;;;10.10;7.85;;;;;;;21.78;58.39;100159.20;1769245;81;21089;-70
2021/06/20 02:27:00;;;;;;;9.78;7.75;;;;;;;21.76;58.51;100160.83;1823265;78;21009;-70
2021/06/20 02:29:26;;;;;;;13.03;7.85;;;;;;;21.76;58.65;100158.11;1768865;80;21014;-70
2021/06/20 02:31:52;;;;;;;9.63;7.95;;;;;;;21.76;58.76;100161.36;1823340;78;21019;-70
2021/06/20 02:34:18;;;;;;;8.80;7.87;;;;;;;21.74;58.85;100156.16;1769233;81;21069;-70
2021/06/20 02:36:44;;;;;;;10.38;8.40;;;;;;;21.75;59.00;100165.13;1823488;78;21006;-70
2021/06/20 02:39:10;;;;;;;10.82;8.55;;;;;;;21.74;59.04;100162.16;1769431;81;21144;-70
2021/06/20 02:41:36;;;;;;;14.10;8.65;;;;;;;21.73;59.13;100157.26;1822993;78;21015;-70
2021/06/20 02:44:02;;;;;;;13.48;7.80;;;;;;;21.74;59.21;100162.16;1769475;81;21031;-70
2021/06/20 02:46:28;;;;;;;8.88;8.00;;;;;;;21.73;59.25;100157.26;1823208;78;21451;-70
2021/06/20 02:48:54;;;;;;;10.68;8.20;;;;;;;21.72;59.35;100157.49;1769453;81;21502;-70
2021/06/20 02:51:20;;;;;;;12.68;8.33;;;;;;;21.68;59.40;100156.34;1823295;78;21100;-70
2021/06/20 02:53:46;;;;;;;11.20;8.28;;;;;;;21.67;59.48;100157.43;1769434;81;21061;-70
2021/06/20 02:56:12;;;;;;;12.85;8.78;;;;;;;21.63;59.52;100148.96;1769442;81;21013;-70
2021/06/20 02:58:38;;;;;;;10.75;8.53;;;;;;;21.63;59.57;100145.42;1769016;81;21046;-70
2021/06/20 03:01:04;;;;;;;11.33;8.83;;;;;;;21.63;59.64;100142.70;1769107;81;20999;-70
2021/06/20 03:03:30;;;;;;;9.03;8.13;;;;;;;21.65;59.78;100131.87;1769213;81;21459;-70
2021/06/20 03:05:56;;;;;;;11.57;7.80;;;;;;;21.70;59.86;100135.22;1769401;81;21053;-70
2021/06/20 03:08:22;;;;;;;11.05;7.80;;;;;;;21.72;59.92;100127.63;1769214;81;21005;-70
2021/06/20 03:10:48;;;;;;;14.95;8.33;;;;;;;21.75;60.00;100133.91;1769133;81;20994;-70
2021/06/20 03:13:14;;;;;;;7.92;7.12;;;;;;;21.77;60.03;100127.72;1769308;80;21015;-70
2021/06/20 03:15:43;;;;;;;10.85;8.53;;;;;;;21.79;60.05;100130.99;1769324;81;21142;-70
2021/06/20 03:18:09;;;;;;;11.73;7.70;;;;;;;21.81;60.05;100131.58;1769435;81;21007;-70
2021/06/20 03:20:35;;;;;;;12.05;8.00;;;;;;;21.85;60.04;100132.70;1769197;81;21474;-70
2021/06/20 03:23:01;;;;;;;13.90;7.92;;;;;;;21.87;60.03;100130.58;1769173;81;21053;-70
2021/06/20 03:25:27;;;;;;;12.73;8.45;;;;;;;22.00;60.14;100124.80;1768774;81;21037;-70
2021/06/20 03:27:53;;;;;;;13.38;8.33;;;;;;;22.31;60.14;100130.91;1772315;81;21154;-70
2021/06/20 03:30:20;;;;;;;12.58;7.97;;;;;;;22.82;59.97;100134.24;1772739;81;21014;-70
2021/06/20 03:32:46;;;;;;;8.90;6.92;;;;;;;23.45;59.64;100133.48;1813431;79;21019;-70
2021/06/20 03:35:13;;;;;;;10.60;7.58;;;;;;;24.08;59.12;100135.78;1772684;81;21002;-70
2021/06/20 03:37:39;;;;;;;9.00;7.28;;;;;;;24.54;58.63;100149.92;1813390;79;21003;-70
2021/06/20 03:40:06;;;;;;;8.55;7.12;;;;;;;25.08;58.06;100143.55;1773104;81;21683;-70
2021/06/20 03:42:32;;;;;;;8.60;7.22;;;;;;;25.47;57.35;100147.10;1772183;81;20990;-70
2021/06/20 03:44:58;;;;;;;9.23;7.80;;;;;;;25.84;56.83;100148.99;1772972;81;21017;-71
2021/06/20 03:47:24;;;;;;;11.03;7.20;;;;;;;26.14;56.09;100151.64;1772954;81;21002;-70
2021/06/20 03:49:50;;;;;;;9.58;7.62;;;;;;;26.40;55.50;100162.52;1773117;81;21030;-70
2021/06/20 03:52:16;;;;;;;8.35;6.90;;;;;;;26.62;54.69;100161.06;1773150;81;21835;-70
2021/06/20 03:54:49;;;;;;;10.03;7.42;;;;;;;26.89;54.06;100159.30;1772951;81;21499;-70
2021/06/20 03:57:10;;;;;;;11.68;7.00;;;;;;;27.19;53.33;100156.37;1812498;78;21003;-70
2021/06/20 03:59:36;;;;;;;10.65;7.08;;;;;;;27.35;52.74;100157.59;1772780;81;21018;-70
2021/06/20 04:02:03;;;;;;;8.73;6.55;;;;;;;27.48;52.22;100151.52;1773291;81;20998;-70
2021/06/20 04:04:29;;;;;;;12.55;8.15;;;;;;;27.80;51.53;100154.48;1813425;79;22451;-70
2021/06/20 04:06:55;;;;;;;9.18;6.47;;;;;;;27.82;51.02;100156.39;1773179;81;21033;-70
2021/06/20 04:09:21;;;;;;;9.18;6.53;;;;;;;27.95;50.39;100158.99;1773155;81;21041;-70
2021/06/20 04:11:47;;;;;;;7.67;5.97;;;;;;;28.18;49.95;100159.03;1773019;81;21127;-70
2021/06/20 04:14:13;;;;;;;11.83;6.22;;;;;;;28.18;49.30;100159.61;1813442;79;20975;-71
2021/06/20 04:16:39;;;;;;;8.93;6.15;;;;;;;28.15;49.00;100163.73;1773099;81;22456;-71
2021/06/20 04:19:05;;;;;;;10.60;6.58;;;;;;;28.28;48.58;100161.68;1773067;81;21033;-71
2021/06/20 04:21:32;;;;;;;9.43;6.12;;;;;;;28.50;48.33;100175.41;1813097;79;20999;-70
2021/06/20 04:23:58;;;;;;;7.62;5.97;;;;;;;28.68;47.77;100178.75;1773160;81;21439;-71
2021/06/20 04:26:24;;;;;;;8.30;6.33;;;;;;;28.74;47.10;100176.22;1813658;78;21472;-71
2021/06/20 04:28:50;;;;;;;6.42;5.83;;;;;;;28.61;46.74;100182.38;1820653;78;22608;-71
2021/06/20 04:31:17;;;;;;;6.70;5.92;;;;;;;28.22;46.92;100178.46;1819941;78;21552;-71
2021/06/20 04:33:44;;;;;;;7.53;6.50;;;;;;;27.95;47.21;100180.38;1820853;78;20980;-71
2021/06/20 04:36:10;;;;;;;10.58;6.83;;;;;;;27.73;47.47;100178.66;1820916;78;20995;-71
2021/06/20 04:38:37;;;;;;;8.78;6.30;;;;;;;27.62;47.75;100179.89;1821145;78;21005;-71
2021/06/20 04:41:06;;;;;;;7.78;6.75;;;;;;;27.66;47.83;100176.81;1822543;78;21918;-71
2021/06/20 04:46:34;;;;;;;10.63;6.40;;;;;;;27.83;47.76;100186.82;1822542;78;21453;-71
2021/06/20 04:49:08;;;;;;;9.00;5.97;;;;;;;27.98;47.77;100183.91;1822609;78;20902;-71
2021/06/20 04:51:39;;;;;;;9.98;6.20;;;;;;;27.99;47.57;100189.66;1822361;78;21410;-71
2021/06/20 04:54:07;;;;;;;7.10;5.53;;;;;;;27.98;47.55;100181.16;1822555;78;21839;-70
2021/06/20 04:56:33;;;;;;;11.10;6.58;;;;;;;27.79;47.42;100183.02;1822542;78;21495;-70
2021/06/20 04:58:59;;;;;;;7.40;6.17;;;;;;;27.84;47.42;100182.95;1822762;78;21422;-71
2021/06/20 05:01:25;;;;;;;7.30;6.12;;;;;;;28.04;47.44;100176.46;1822353;78;20966;-71
2021/06/20 05:03:53;;;;;;;9.05;6.87;;;;;;;27.99;47.19;100178.70;1822646;78;21017;-71
2021/06/20 05:06:19;;;;;;;7.78;6.05;;;;;;;27.68;47.13;100173.25;1822682;78;21796;-71
2021/06/20 05:08:45;;;;;;;14.85;6.37;;;;;;;27.60;47.20;100173.86;1822419;78;20887;-71
2021/06/20 05:11:11;;;;;;;10.58;6.17;;;;;;;27.75;47.27;100170.98;1802073;78;20974;-71
2021/06/20 05:13:37;;;;;;;7.95;6.08;;;;;;;27.90;47.26;100173.59;1818922;78;20990;-73
2021/06/20 05:16:04;;;;;;;6.87;6.22;;;;;;;28.25;47.15;100175.95;1814392;78;20978;-73
2021/06/20 05:18:31;;;;;;;10.32;6.95;;;;;;;28.35;46.97;100182.45;1822495;78;21813;-73
2021/06/20 05:20:57;;;;;;;7.42;6.50;;;;;;;28.39;46.86;100186.25;1822837;78;21490;-73
2021/06/20 05:23:23;;;;;;;8.03;5.92;;;;;;;28.49;46.64;100194.35;1822341;78;20977;-73
2021/06/20 05:25:50;;;;;;;13.53;5.95;;;;;;;28.29;46.47;100189.91;1822507;78;20978;-72
2021/06/20 05:28:16;;;;;;;9.08;6.17;;;;;;;28.36;46.50;100184.09;1810253;78;20987;-73
2021/06/20 05:30:45;;;;;;;8.73;5.45;;;;;;;28.46;46.41;100179.85;1807015;79;21922;-73
2021/06/20 05:33:10;;;;;;;8.08;6.17;;;;;;;28.62;46.26;100171.67;1806718;79;20986;-73
2021/06/20 05:35:36;;;;;;;8.43;5.85;;;;;;;28.66;46.07;100164.48;1806401;79;21542;-73
2021/06/20 05:38:02;;;;;;;8.68;6.35;;;;;;;28.76;46.08;100163.00;1806920;79;21478;-73
2021/06/20 05:40:28;;;;;;;9.83;6.20;;;;;;;28.98;45.98;100159.13;1788488;80;20983;-73
2021/06/20 05:42:54;;;;;;;10.03;5.95;;;;;;;28.98;45.62;100159.67;1817970;79;21972;-73
2021/06/20 05:45:20;;;;;;;7.62;5.75;;;;;;;28.70;45.59;100151.84;1799141;79;21010;-73
2021/06/20 05:47:46;;;;;;;7.70;5.30;;;;;;;28.74;45.60;100161.12;1822652;78;21002;-73
2021/06/20 05:50:12;;;;;;;8.35;6.28;;;;;;;28.93;45.60;100164.67;1822962;78;20959;-73
2021/06/20 05:52:38;;;;;;;7.20;6.40;;;;;;;29.08;45.38;100153.47;1790565;80;21021;-72
2021/06/20 05:55:08;;;;;;;9.15;5.87;;;;;;;29.06;45.34;100161.17;1822909;78;21915;-73
2021/06/20 05:57:34;;;;;;;11.18;5.70;;;;;;;29.31;45.24;100152.34;1822594;78;20979;-73
2021/06/20 06:00:00;;;;;;;9.80;6.17;;;;;;;29.29;44.89;100149.06;1790456;79;21070;-73
2021/06/20 06:02:26;;;;;;;7.90;6.28;;;;;;;29.19;44.95;100149.46;1822829;78;21329;-73
2021/06/20 06:04:52;;;;;;;6.42;5.80;;;;;;;29.36;44.99;100148.11;1822667;78;20978;-73
2021/06/20 06:07:18;;;;;;;6.83;6.12;;;;;;;29.59;44.82;100138.94;1790462;80;21773;-73
2021/06/20 06:09:44;;;;;;;7.37;5.75;;;;;;;29.55;44.54;100143.41;1822758;78;21027;-73
2021/06/20 06:12:11;;;;;;;8.68;6.65;;;;;;;29.41;44.17;100141.17;1822926;78;21511;-73
2021/06/20 06:14:37;;;;;;;8.25;6.42;;;;;;;29.16;44.21;100136.33;1790692;80;20899;-73
2021/06/20 06:17:03;;;;;;;14.30;6.42;;;;;;;29.22;44.29;100129.63;1822864;78;20959;-73
2021/06/20 06:19:29;;;;;;;6.58;5.85;;;;;;;29.46;44.25;100130.08;1822552;78;21844;-72
2021/06/20 06:21:55;;;;;;;12.05;6.22;;;;;;;29.50;44.09;100132.48;1790206;80;21013;-73
2021/06/20 06:24:21;;;;;;;8.15;5.87;;;;;;;29.31;43.90;100139.97;1822830;78;21351;-73
2021/06/20 06:26:47;;;;;;;11.15;6.35;;;;;;;29.21;44.01;100145.84;1822842;78;20955;-73
2021/06/20 06:29:13;;;;;;;9.00;6.25;;;;;;;29.47;44.07;100147.66;1792275;78;21030;-73
2021/06/20 06:31:41;;;;;;;9.33;6.42;;;;;;;29.59;43.88;100141.10;1822195;78;22924;-73
2021/06/20 06:34:09;;;;;;;7.45;5.20;;;;;;;29.51;43.66;100135.50;1796955;78;21545;-73
2021/06/20 06:36:36;;;;;;;9.90;5.90;;;;;;;29.28;43.52;100135.87;1761697;80;21418;-73
2021/06/20 06:39:03;;;;;;;6.50;5.90;;;;;;;29.35;43.62;100128.06;1776922;79;21034;-73
2021/06/20 06:41:31;;;;;;;9.55;6.37;;;;;;;29.45;43.58;100141.63;1821081;78;20902;-73
2021/06/20 06:43:57;;;;;;;8.88;6.90;;;;;;;29.32;43.49;100142.95;1760921;81;21869;-73
2021/06/20 06:46:23;;;;;;;11.20;6.45;;;;;;;29.55;43.64;100133.78;1764165;80;21450;-73
2021/06/20 06:48:49;;;;;;;8.50;6.25;;;;;;;29.84;43.58;100128.86;1804595;78;21339;-73
2021/06/20 06:51:15;;;;;;;10.65;6.37;;;;;;;30.15;43.48;100115.35;1789449;78;20974;-73
2021/06/20 06:53:41;;;;;;;10.75;6.45;;;;;;;30.23;43.13;100114.05;1755790;80;21009;-72
2021/06/20 06:56:07;;;;;;;10.82;6.35;;;;;;;30.23;43.18;100114.61;1770619;81;21759;-73
2021/06/20 06:58:33;;;;;;;9.95;6.60;;;;;;;30.18;42.82;100110.05;1820981;78;21017;-72
2021/06/20 07:00:59;;;;;;;9.43;6.30;;;;;;;30.04;42.70;100124.92;1824799;78;20975;-72
2021/06/20 07:03:25;;;;;;;10.08;7.15;;;;;;;29.97;42.73;100123.95;1796000;79;20987;-72
2021/06/20 07:05:53;;;;;;;7.58;5.75;;;;;;;29.93;42.73;100130.36;1794462;78;21027;-72
2021/06/20 07:08:19;;;;;;;8.55;6.05;;;;;;;29.93;42.82;100139.43;1800183;77;22372;-72
2021/06/20 07:10:45;;;;;;;11.73;6.60;;;;;;;30.14;42.82;100133.78;1795786;79;20991;-73
2021/06/20 07:13:11;;;;;;;13.62;6.10;;;;;;;30.30;42.81;100129.33;1824779;78;20998;-72
2021/06/20 07:15:37;;;;;;;9.63;6.10;;;;;;;30.47;42.71;100131.73;1795955;79;20986;-72
2021/06/20 07:18:04;;;;;;;7.00;6.30;;;;;;;30.80;42.70;100143.97;1824924;78;21029;-73
2021/06/20 07:20:30;;;;;;;11.57;6.22;;;;;;;31.13;42.55;100158.66;1795831;78;21844;-73
2021/06/20 07:22:56;;;;;;;9.13;6.08;;;;;;;31.41;42.30;100157.16;1794734;78;21047;-72
2021/06/20 07:25:22;;;;;;;7.90;6.28;;;;;;;31.54;42.03;100153.53;1823893;78;21029;-72
2021/06/20 07:27:49;;;;;;;12.20;5.97;;;;;;;31.61;41.76;100158.03;1818744;78;20891;-72
2021/06/20 07:30:18;;;;;;;6.42;5.78;;;;;;;31.72;41.52;100155.27;1828888;78;21041;-72
2021/06/20 07:32:44;;;;;;;7.55;5.62;;;;;;;31.83;41.44;100158.02;1822330;78;21850;-72
2021/06/20 07:35:11;;;;;;;11.65;5.90;;;;;;;32.01;41.24;100157.53;1812131;78;21041;-72
2021/06/20 07:37:37;;;;;;;7.40;5.45;;;;;;;32.03;41.01;100153.31;1820009;78;21041;-72
2021/06/20 07:40:09;;;;;;;7.78;5.55;;;;;;;32.07;40.74;100157.09;1798794;78;21031;-72
2021/06/20 07:42:35;;;;;;;5.87;5.37;;;;;;;31.96;40.53;100154.89;1794872;79;21005;-72
2021/06/20 07:45:03;;;;;;;10.18;5.37;;;;;;;32.01;40.44;100160.29;1806433;78;22568;-73
2021/06/20 07:47:29;;;;;;;8.95;5.78;;;;;;;31.90;40.17;100147.34;1823578;78;21062;-72
2021/06/20 07:49:56;;;;;;;7.97;5.67;;;;;;;31.89;40.06;100138.80;1787809;78;20981;-72
2021/06/20 07:52:22;;;;;;;17.32;5.80;;;;;;;31.83;39.88;100135.94;1788166;78;21371;-72
2021/06/20 07:54:51;;;;;;;16.48;6.15;;;;;;;31.85;39.96;100134.23;1796030;78;21001;-73
2021/06/20 07:57:18;;;;;;;8.55;5.12;;;;;;;32.09;39.94;100146.55;1813355;78;21911;-72
2021/06/20 07:59:45;;;;;;;8.30;5.35;;;;;;;32.37;39.70;100144.95;1757803;81;21027;-72
2021/06/20 08:02:11;;;;;;;9.10;5.85;;;;;;;32.38;39.40;100141.03;1785078;79;21377;-72
2021/06/20 08:04:39;;;;;;;7.05;5.40;;;;;;;32.22;39.14;100132.96;1791644;80;21038;-73
2021/06/20 08:07:05;;;;;;;9.73;8.15;;;;;;;32.41;39.26;100125.20;1792163;79;21050;-72
2021/06/20 08:09:32;;;;;;;7.60;5.62;;;;;;;32.60;39.09;100120.25;1792443;79;22369;-73
2021/06/20 08:11:58;;;;;;;6.90;5.33;;;;;;;32.68;38.94;100121.41;1792189;80;20987;-72
2021/06/20 08:14:24;;;;;;;11.05;6.75;;;;;;;32.59;38.86;100125.52;1792199;80;21101;-72
2021/06/20 08:16:50;;;;;;;12.60;11.28;;;;;;;32.65;38.77;100122.87;1790923;80;20992;-73
2021/06/20 08:19:16;;;;;;;11.18;7.80;;;;;;;32.83;38.69;100116.20;1787869;79;21529;-72
2021/06/20 08:21:43;;;;;;;6.87;5.55;;;;;;;32.91;38.49;100115.95;1804239;79;21751;-72
2021/06/20 08:24:10;;;;;;;5.97;5.37;;;;;;;32.99;38.43;100113.77;1804302;79;21595;-72
2021/06/20 08:26:37;;;;;;;9.78;5.33;;;;;;;33.04;38.21;100113.02;1788288;79;21051;-72
2021/06/20 08:29:04;;;;;;;8.50;5.08;;;;;;;33.15;38.18;100109.39;1798473;79;21566;-73
2021/06/20 08:31:31;;;;;;;6.80;4.55;;;;;;;33.11;37.92;100116.70;1816499;78;20952;-72
2021/06/20 08:33:57;;;;;;;8.73;4.78;;;;;;;33.22;37.67;100120.77;1766465;79;21689;-73
2021/06/20 08:36:23;;;;;;;7.92;4.83;;;;;;;33.29;37.48;100123.03;1798523;78;20974;-73
2021/06/20 08:38:49;;;;;;;7.03;4.62;;;;;;;33.37;37.21;100120.27;1790219;78;21020;-72
2021/06/20 08:41:15;;;;;;;6.28;4.40;;;;;;;33.43;37.00;100118.94;1788067;79;21495;-72
2021/06/20 08:43:43;;;;;;;5.97;4.85;;;;;;;33.34;36.68;100111.81;1791537;80;21034;-73
2021/06/20 08:46:10;;;;;;;6.80;4.55;;;;;;;33.31;36.51;100101.41;1794825;80;21927;-72
2021/06/20 08:48:37;;;;;;;6.55;4.62;;;;;;;32.98;35.73;100099.70;1764347;80;21022;-73
2021/06/20 08:51:04;;;;;;;7.95;4.12;;;;;;;32.73;35.86;100098.56;1794147;80;21431;-72
2021/06/20 08:53:31;;;;;;;5.70;4.55;;;;;;;32.87;36.04;100099.78;1790602;80;21026;-72
2021/06/20 08:55:57;;;;;;;7.60;4.62;;;;;;;33.04;36.04;100086.77;1794981;80;21019;-73
2021/06/20 08:58:30;;;;;;;8.88;4.58;;;;;;;33.26;36.06;100085.80;1791065;80;22600;-72
2021/06/20 09:00:56;;;;;;;9.50;4.65;;;;;;;33.39;35.98;100090.91;1795016;80;21065;-72
2021/06/20 09:03:23;;;;;;;5.03;4.08;;;;;;;33.58;35.90;100096.86;1791123;80;21066;-72
2021/06/20 09:06:05;;;;;;;8.00;4.62;;;;;;;33.63;35.70;100089.81;1794985;80;21528;-72
2021/06/20 09:08:32;;;;;;;5.70;4.40;;;;;;;33.62;35.36;100093.71;1790841;80;21065;-72
2021/06/20 09:10:58;;;;;;;6.10;4.65;;;;;;;33.70;35.19;100084.58;1794838;80;21853;-72
2021/06/20 09:13:34;;;;;;;5.00;4.28;;;;;;;33.72;35.04;100082.28;1791352;80;20979;-72
2021/06/20 09:16:04;;;;;;;14.98;4.00;;;;;;;33.78;34.91;100080.95;1794402;80;20994;-72
2021/06/20 09:18:30;;;;;;;7.37;4.80;;;;;;;33.53;34.16;100079.08;1791328;80;21042;-73
2021/06/20 09:20:56;;;;;;;5.80;4.55;;;;;;;33.38;33.96;100077.66;1795142;80;21030;-72
2021/06/20 09:23:22;;;;;;;8.90;4.80;;;;;;;33.37;33.97;100077.97;1791138;80;21939;-72
2021/06/20 09:25:57;;;;;;;9.03;4.92;;;;;;;33.72;34.08;100079.52;1794882;80;20984;-72
2021/06/20 09:28:32;;;;;;;6.15;4.37;;;;;;;33.84;33.97;100083.79;1781776;80;20953;-72
2021/06/20 09:31:01;;;;;;;7.45;4.28;;;;;;;33.95;33.86;100080.89;1762231;81;20999;-72
2021/06/20 09:33:30;;;;;;;7.30;4.83;;;;;;;33.84;33.57;100076.88;1789072;80;21511;-72
2021/06/20 09:35:57;;;;;;;;;;;;;;;33.67;33.54;100075.56;1764831;81;21774;-72
2021/06/20 09:38:29;;;;;;;5.60;4.47;;;;;;;33.69;33.71;100073.27;1770255;81;20166;-72
2021/06/20 09:41:11;;;;;;;5.50;4.45;;;;;;;33.50;33.47;100071.41;1770170;81;21029;-72
2021/06/20 09:43:55;;;;;;;8.55;4.20;;;;;;;33.57;33.57;100075.30;1770267;81;21009;-72
2021/06/20 09:46:21;;;;;;;8.63;4.58;;;;;;;33.76;33.41;100070.80;1711704;81;21446;-72
2021/06/20 09:48:47;;;;;;;7.40;4.67;;;;;;;33.76;33.00;100083.25;1770338;81;21791;-72
2021/06/20 09:51:21;;;;;;;7.30;4.47;;;;;;;33.67;33.01;100079.72;1770267;81;21054;-72
2021/06/20 09:53:49;;;;;;;8.80;4.78;;;;;;;33.78;33.10;100076.80;1788923;80;21085;-72
2021/06/20 09:56:32;;;;;;;7.03;4.58;;;;;;;34.05;33.05;100061.70;1762023;81;21486;-72
2021/06/20 09:59:12;;;;;;;9.25;4.70;;;;;;;34.23;32.85;100068.80;1789144;80;21475;-72
2021/06/20 10:01:38;;;;;;;6.30;4.22;;;;;;;34.19;32.68;100065.08;1758190;81;22455;-72
2021/06/20 10:04:05;;;;;;;5.80;4.00;;;;;;;34.30;32.65;100064.11;1788796;80;21038;-72
2021/06/20 10:06:31;;;;;;;6.60;4.17;;;;;;;34.50;32.42;100059.16;1762008;81;21050;-73
2021/06/20 10:08:57;;;;;;;6.08;4.55;;;;;;;34.65;32.33;100053.05;1788760;80;21057;-72
2021/06/20 10:11:23;;;;;;;4.70;4.10;;;;;;;34.60;31.99;100051.82;1761906;81;20950;-72
2021/06/20 10:13:49;;;;;;;10.23;4.17;;;;;;;34.28;31.77;100047.00;1788808;80;21874;-73
2021/06/20 10:16:23;;;;;;;4.90;4.20;;;;;;;34.43;31.92;100047.80;1761933;81;21004;-73
2021/06/20 10:19:14;;;;;;;8.15;4.35;;;;;;;34.48;31.67;100049.00;1789247;80;21038;-73
2021/06/20 10:21:46;;;;;;;4.95;4.00;;;;;;;34.59;31.60;100041.88;1761717;81;21557;-72
2021/06/20 10:24:18;;;;;;;12.82;4.70;;;;;;;34.82;31.52;100043.19;1788963;80;21034;-72
2021/06/20 10:26:59;;;;;;;5.45;3.80;;;;;;;34.84;31.42;100040.87;1761142;81;21904;-72
2021/06/20 10:29:28;;;;;;;5.45;3.92;;;;;;;34.94;31.35;100032.73;1786001;80;21460;-72
2021/06/20 10:31:55;;;;;;;4.75;3.95;;;;;;;34.51;30.52;100026.97;1784108;80;20999;-72
2021/06/20 10:34:31;;;;;;;8.18;4.17;;;;;;;34.41;30.59;100015.48;1797191;79;20999;-72
2021/06/20 10:37:00;;;;;;;8.05;4.42;;;;;;;34.27;30.25;100032.94;1783784;80;21389;-73
2021/06/20 10:39:27;;;;;;;6.35;4.03;;;;;;;34.22;30.34;100037.28;1795877;79;21832;-72
2021/06/20 10:42:07;;;;;;;6.28;4.50;;;;;;;34.24;30.20;100030.25;1784008;80;21003;-73
2021/06/20 10:44:50;;;;;;;7.35;4.20;;;;;;;34.35;30.11;100031.48;1783270;80;20999;-72
2021/06/20 10:47:32;;;;;;;10.45;4.58;;;;;;;34.58;30.31;100031.97;1796482;79;21503;-73
2021/06/20 10:50:09;;;;;;;8.38;4.03;;;;;;;34.48;29.71;100032.38;1784119;80;20999;-73
2021/06/20 10:52:35;;;;;;;8.00;4.35;;;;;;;34.40;29.78;100036.83;1797244;79;21841;-72
2021/06/20 10:55:09;;;;;;;5.58;4.10;;;;;;;34.68;29.77;100032.97;1783710;80;21462;-73
2021/06/20 10:57:50;;;;;;;7.62;4.08;;;;;;;34.84;29.73;100020.09;1797309;79;20974;-72
2021/06/20 11:00:34;;;;;;;8.78;4.40;;;;;;;34.96;29.82;100018.77;1782172;80;21415;-73
2021/06/20 11:03:09;;;;;;;4.37;3.95;;;;;;;34.67;29.10;100018.87;1792313;79;20910;-73
2021/06/20 11:05:55;;;;;;;6.50;4.40;;;;;;;34.71;29.21;100017.61;1804108;79;22334;-72
2021/06/20 11:08:33;;;;;;;6.08;3.95;;;;;;;35.03;29.36;100012.66;1794994;78;21014;-72
2021/06/20 11:11:25;;;;;;;4.87;4.12;;;;;;;35.08;29.04;100010.47;1777719;79;21453;-72
2021/06/20 11:14:00;;;;;;;5.05;4.05;;;;;;;35.07;29.12;100004.70;1775382;80;20987;-73
2021/06/20 11:16:36;;;;;;;7.05;4.30;;;;;;;35.12;29.18;100005.68;1788021;79;21020;-72
2021/06/20 11:19:25;;;;;;;8.75;4.30;;;;;;;35.18;29.16;100004.30;1782015;78;21888;-73
2021/06/20 11:22:02;;;;;;;4.35;3.98;;;;;;;34.98;29.26;99990.69;1788252;78;21426;-73
2021/06/20 11:24:42;;;;;;;6.30;4.30;;;;;;;34.87;29.52;99983.38;1797358;79;21552;-73
2021/06/20 11:27:16;;;;;;;8.13;4.70;;;;;;;35.06;29.65;99987.83;1784940;79;21004;-73
2021/06/20 11:29:50;;;;;;;6.72;4.87;;;;;;;35.15;29.52;99992.52;1789304;79;20998;-73